createdAt,value
2022-10-08T00:00:29.805Z,994.90
2022-10-08T00:01:29.827Z,994.93
2022-10-08T00:02:29.822Z,994.88
2022-10-08T00:03:29.776Z,994.91
2022-10-08T00:04:29.840Z,994.90
2022-10-08T00:05:29.783Z,994.90
2022-10-08T00:06:29.768Z,994.88
2022-10-08T00:07:29.781Z,994.90
2022-10-08T00:08:29.756Z,994.82
2022-10-08T00:09:29.766Z,994.97
2022-10-08T00:10:29.752Z,994.92
2022-10-08T00:11:29.762Z,994.93
2022-10-08T00:12:29.766Z,994.95
2022-10-08T00:13:29.728Z,994.96
2022-10-08T00:14:29.741Z,994.90
2022-10-08T00:15:29.797Z,994.97
2022-10-08T00:16:29.809Z,994.94
2022-10-08T00:17:29.750Z,995.02
2022-10-08T00:18:29.716Z,994.98
2022-10-08T00:19:29.704Z,994.97
2022-10-08T00:20:29.717Z,995.04
2022-10-08T00:21:29.690Z,994.99
2022-10-08T00:22:29.695Z,995.02
2022-10-08T00:23:29.702Z,995.00
2022-10-08T00:24:29.672Z,994.99
2022-10-08T00:25:29.672Z,995.07
2022-10-08T00:26:29.676Z,995.03
2022-10-08T00:27:29.672Z,995.07
2022-10-08T00:28:29.736Z,995.08
2022-10-08T00:29:29.689Z,995.02
2022-10-08T00:30:29.717Z,995.05
2022-10-08T00:31:29.779Z,995.06
2022-10-08T00:32:29.629Z,995.03
2022-10-08T00:33:29.634Z,994.99
2022-10-08T00:34:29.648Z,995.02
2022-10-08T00:35:29.634Z,995.01
2022-10-08T00:36:29.631Z,995.02
2022-10-08T00:37:29.613Z,995.04
2022-10-08T00:38:29.616Z,995.07
2022-10-08T00:39:29.626Z,995.02
2022-10-08T00:40:29.612Z,995.07
2022-10-08T00:41:29.626Z,995.10
2022-10-08T00:42:29.580Z,995.06
2022-10-08T00:43:29.585Z,995.10
2022-10-08T00:44:29.573Z,995.03
2022-10-08T00:45:29.661Z,995.05
2022-10-08T00:46:29.578Z,995.06
2022-10-08T00:47:29.576Z,995.04
2022-10-08T00:48:29.570Z,995.01
2022-10-08T00:49:29.554Z,995.00
2022-10-08T00:50:29.603Z,995.02
2022-10-08T00:51:29.591Z,995.00
2022-10-08T00:52:29.526Z,995.07
2022-10-08T00:53:29.526Z,995.07
2022-10-08T00:54:29.538Z,995.05
2022-10-08T00:55:29.551Z,994.99
2022-10-08T00:56:29.545Z,995.03
2022-10-08T00:57:29.549Z,995.05
2022-10-08T00:58:29.497Z,995.04
2022-10-08T00:59:29.498Z,995.02
2022-10-08T01:00:29.522Z,995.07
2022-10-08T01:01:29.511Z,995.01
2022-10-08T01:02:29.554Z,995.00
2022-10-08T01:03:29.516Z,995.02
2022-10-08T01:04:29.492Z,994.98
2022-10-08T01:05:29.484Z,995.03
2022-10-08T01:06:29.487Z,994.98
2022-10-08T01:07:29.469Z,994.95
2022-10-08T01:08:29.503Z,994.99
2022-10-08T01:09:29.464Z,994.91
2022-10-08T01:10:29.444Z,994.99
2022-10-08T01:11:29.435Z,995.01
2022-10-08T01:12:29.455Z,994.97
2022-10-08T01:13:29.495Z,994.95
2022-10-08T01:14:29.454Z,994.97
2022-10-08T01:15:29.425Z,994.95
2022-10-08T01:16:29.470Z,994.95
2022-10-08T01:17:29.421Z,994.90
2022-10-08T01:18:29.424Z,994.89
2022-10-08T01:19:29.430Z,994.89
2022-10-08T01:20:30.401Z,994.92
2022-10-08T01:21:29.405Z,994.86
2022-10-08T01:22:29.401Z,994.91
2022-10-08T01:23:29.400Z,994.85
2022-10-08T01:24:29.423Z,994.89
2022-10-08T01:25:29.400Z,994.89
2022-10-08T01:26:29.371Z,994.98
2022-10-08T01:27:29.397Z,995.00
2022-10-08T01:28:29.392Z,994.99
2022-10-08T01:29:29.424Z,994.98
2022-10-08T01:30:29.457Z,994.99
2022-10-08T01:31:29.455Z,995.00
2022-10-08T01:32:29.370Z,995.00
2022-10-08T01:33:29.336Z,994.92
2022-10-08T01:34:29.347Z,994.96
2022-10-08T01:35:29.356Z,994.94
2022-10-08T01:36:29.318Z,994.93
2022-10-08T01:37:29.351Z,994.91
2022-10-08T01:38:29.321Z,994.90
2022-10-08T01:39:29.317Z,994.93
2022-10-08T01:40:29.351Z,994.89
2022-10-08T01:41:29.306Z,994.87
2022-10-08T01:42:29.308Z,994.86
2022-10-08T01:43:29.309Z,994.85
2022-10-08T01:44:29.330Z,994.90
2022-10-08T01:45:29.389Z,994.91
2022-10-08T01:46:29.309Z,994.88
2022-10-08T01:47:29.292Z,994.84
2022-10-08T01:48:29.303Z,994.84
2022-10-08T01:49:29.253Z,994.89
2022-10-08T01:50:29.265Z,994.93
2022-10-08T01:51:29.262Z,994.86
2022-10-08T01:52:29.252Z,994.83
2022-10-08T01:53:29.287Z,994.83
2022-10-08T01:54:29.246Z,994.82
2022-10-08T01:55:29.266Z,994.79
2022-10-08T01:56:29.249Z,994.77
2022-10-08T01:57:29.251Z,994.72
2022-10-08T01:58:29.237Z,994.73
2022-10-08T01:59:29.268Z,994.79
2022-10-08T02:00:29.214Z,994.74
2022-10-08T02:01:29.271Z,994.77
2022-10-08T02:02:29.299Z,994.73
2022-10-08T02:03:29.244Z,994.77
2022-10-08T02:04:29.221Z,994.75
2022-10-08T02:05:29.196Z,994.76
2022-10-08T02:06:29.205Z,994.74
2022-10-08T02:07:29.189Z,994.73
2022-10-08T02:08:29.198Z,994.74
2022-10-08T02:09:29.269Z,994.75
2022-10-08T02:10:29.211Z,994.72
2022-10-08T02:11:29.163Z,994.68
2022-10-08T02:12:29.156Z,994.68
2022-10-08T02:13:29.171Z,994.74
2022-10-08T02:14:29.154Z,994.67
2022-10-08T02:15:29.190Z,994.69
2022-10-08T02:16:29.185Z,994.72
2022-10-08T02:17:29.146Z,994.71
2022-10-08T02:18:29.125Z,994.73
2022-10-08T02:19:29.134Z,994.75
2022-10-08T02:20:29.174Z,994.73
2022-10-08T02:21:29.179Z,994.77
2022-10-08T02:22:29.116Z,994.77
2022-10-08T02:23:29.116Z,994.78
2022-10-08T02:24:29.115Z,994.75
2022-10-08T02:25:29.105Z,994.80
2022-10-08T02:26:29.128Z,994.82
2022-10-08T02:27:29.095Z,994.80
2022-10-08T02:28:29.114Z,994.84
2022-10-08T02:29:29.103Z,994.82
2022-10-08T02:30:29.079Z,994.80
2022-10-08T02:31:29.176Z,994.82
2022-10-08T02:32:29.067Z,994.82
2022-10-08T02:33:29.068Z,994.83
2022-10-08T02:34:29.065Z,994.80
2022-10-08T02:35:29.067Z,994.82
2022-10-08T02:36:29.085Z,994.79
2022-10-08T02:37:29.055Z,994.77
2022-10-08T02:38:29.042Z,994.75
2022-10-08T02:39:29.058Z,994.76
2022-10-08T02:40:29.041Z,994.79
2022-10-08T02:41:29.038Z,994.83
2022-10-08T02:42:29.053Z,994.81
2022-10-08T02:43:29.052Z,994.75
2022-10-08T02:44:29.026Z,994.78
2022-10-08T02:45:29.042Z,994.76
2022-10-08T02:46:29.033Z,994.80
2022-10-08T02:47:29.001Z,994.82
2022-10-08T02:48:29.013Z,994.85
2022-10-08T02:49:29.023Z,994.84
2022-10-08T02:50:29.005Z,994.86
2022-10-08T02:51:29.003Z,994.89
2022-10-08T02:52:28.986Z,994.85
2022-10-08T02:53:29.018Z,994.85
2022-10-08T02:54:28.958Z,994.81
2022-10-08T02:55:29.984Z,994.83
2022-10-08T02:56:28.972Z,994.83
2022-10-08T02:57:28.970Z,994.85
2022-10-08T02:58:28.983Z,994.81
2022-10-08T02:59:28.974Z,994.79
2022-10-08T03:00:29.023Z,994.76
2022-10-08T03:01:28.973Z,994.76
2022-10-08T03:02:29.052Z,994.80
2022-10-08T03:03:28.958Z,994.83
2022-10-08T03:04:29.015Z,994.83
2022-10-08T03:05:28.920Z,994.87
2022-10-08T03:06:28.913Z,994.83
2022-10-08T03:07:28.908Z,994.79
2022-10-08T03:08:28.909Z,994.83
2022-10-08T03:09:28.943Z,994.87
2022-10-08T03:10:28.922Z,994.88
2022-10-08T03:11:28.923Z,994.87
2022-10-08T03:12:28.896Z,994.89
2022-10-08T03:13:28.883Z,994.85
2022-10-08T03:14:28.878Z,994.81
2022-10-08T03:15:28.906Z,994.86
2022-10-08T03:16:28.923Z,994.92
2022-10-08T03:17:28.873Z,994.93
2022-10-08T03:18:28.871Z,994.91
2022-10-08T03:19:28.890Z,994.89
2022-10-08T03:20:28.909Z,994.91
2022-10-08T03:21:28.846Z,994.94
2022-10-08T03:22:28.854Z,994.92
2022-10-08T03:23:28.857Z,994.96
2022-10-08T03:24:28.848Z,994.92
2022-10-08T03:25:28.826Z,994.91
2022-10-08T03:26:28.835Z,994.92
2022-10-08T03:27:28.866Z,994.93
2022-10-08T03:28:28.885Z,994.92
2022-10-08T03:29:28.814Z,994.86
2022-10-08T03:30:28.863Z,994.90
2022-10-08T03:31:28.835Z,994.89
2022-10-08T03:32:28.804Z,994.81
2022-10-08T03:33:28.809Z,994.86
2022-10-08T03:34:28.801Z,994.92
2022-10-08T03:35:28.807Z,994.89
2022-10-08T03:36:28.811Z,994.93
2022-10-08T03:37:28.798Z,994.88
2022-10-08T03:38:28.830Z,994.92
2022-10-08T03:39:28.832Z,994.91
2022-10-08T03:40:28.769Z,994.87
2022-10-08T03:41:28.775Z,994.89
2022-10-08T03:42:28.753Z,994.87
2022-10-08T03:43:28.752Z,994.86
2022-10-08T03:44:28.756Z,994.87
2022-10-08T03:45:28.760Z,994.94
2022-10-08T03:46:28.842Z,994.91
2022-10-08T03:47:28.731Z,994.86
2022-10-08T03:48:28.737Z,994.88
2022-10-08T03:49:28.723Z,994.93
2022-10-08T03:50:28.735Z,994.95
2022-10-08T03:51:28.814Z,994.95
2022-10-08T03:52:28.703Z,994.97
2022-10-08T03:53:28.728Z,994.95
2022-10-08T03:54:28.705Z,994.99
2022-10-08T03:55:28.699Z,994.99
2022-10-08T03:56:28.696Z,995.00
2022-10-08T03:57:28.698Z,994.96
2022-10-08T03:58:28.668Z,994.94
2022-10-08T03:59:28.656Z,994.99
2022-10-08T04:00:28.705Z,994.93
2022-10-08T04:01:28.815Z,994.96
2022-10-08T04:02:28.815Z,994.99
2022-10-08T04:03:28.683Z,995.00
2022-10-08T04:04:28.693Z,995.01
2022-10-08T04:05:28.650Z,995.01
2022-10-08T04:06:28.669Z,995.03
2022-10-08T04:07:28.649Z,995.03
2022-10-08T04:08:28.631Z,995.07
2022-10-08T04:09:28.632Z,995.09
2022-10-08T04:10:28.657Z,995.20
2022-10-08T04:11:28.631Z,995.04
2022-10-08T04:12:28.608Z,995.06
2022-10-08T04:13:28.618Z,995.05
2022-10-08T04:14:28.608Z,995.09
2022-10-08T04:15:28.674Z,995.19
2022-10-08T04:16:29.614Z,995.07
2022-10-08T04:17:28.584Z,995.16
2022-10-08T04:18:28.588Z,995.10
2022-10-08T04:19:28.570Z,995.17
2022-10-08T04:20:28.583Z,995.17
2022-10-08T04:21:28.590Z,995.20
2022-10-08T04:22:28.597Z,995.14
2022-10-08T04:23:28.570Z,995.14
2022-10-08T04:24:28.562Z,995.05
2022-10-08T04:25:28.550Z,995.03
2022-10-08T04:26:28.537Z,994.98
2022-10-08T04:27:28.695Z,995.04
2022-10-08T04:28:28.570Z,995.13
2022-10-08T04:29:28.544Z,995.14
2022-10-08T04:30:28.513Z,995.13
2022-10-08T04:31:28.585Z,995.12
2022-10-08T04:32:28.551Z,995.13
2022-10-08T04:33:28.526Z,995.10
2022-10-08T04:34:28.496Z,995.05
2022-10-08T04:35:28.518Z,995.08
2022-10-08T04:36:28.528Z,995.13
2022-10-08T04:37:28.486Z,995.16
2022-10-08T04:38:28.508Z,995.10
2022-10-08T04:39:28.545Z,995.14
2022-10-08T04:40:28.492Z,995.18
2022-10-08T04:41:28.484Z,995.15
2022-10-08T04:42:28.497Z,995.18
2022-10-08T04:43:28.468Z,995.16
2022-10-08T04:44:28.473Z,995.17
2022-10-08T04:45:28.455Z,995.21
2022-10-08T04:46:28.545Z,995.16
2022-10-08T04:47:28.507Z,995.21
2022-10-08T04:48:28.462Z,995.19
2022-10-08T04:49:28.442Z,995.23
2022-10-08T04:50:28.439Z,995.17
2022-10-08T04:51:28.450Z,995.23
2022-10-08T04:52:28.458Z,995.16
2022-10-08T04:53:28.435Z,995.16
2022-10-08T04:54:28.438Z,995.20
2022-10-08T04:55:28.417Z,995.18
2022-10-08T04:56:28.412Z,995.26
2022-10-08T04:57:28.407Z,995.25
2022-10-08T04:58:28.391Z,995.22
2022-10-08T04:59:28.422Z,995.21
2022-10-08T05:00:28.385Z,995.25
2022-10-08T05:01:28.543Z,995.18
2022-10-08T05:02:28.536Z,995.22
2022-10-08T05:03:28.454Z,995.18
2022-10-08T05:04:29.383Z,995.23
2022-10-08T05:05:28.376Z,995.20
2022-10-08T05:06:28.369Z,995.23
2022-10-08T05:07:28.376Z,995.28
2022-10-08T05:08:28.358Z,995.27
2022-10-08T05:09:28.463Z,995.29
2022-10-08T05:10:28.501Z,995.27
2022-10-08T05:11:28.360Z,995.28
2022-10-08T05:12:28.378Z,995.27
2022-10-08T05:13:28.326Z,995.24
2022-10-08T05:14:28.350Z,995.30
2022-10-08T05:15:28.315Z,995.32
2022-10-08T05:16:28.308Z,995.31
2022-10-08T05:17:28.374Z,995.31
2022-10-08T05:18:28.307Z,995.34
2022-10-08T05:19:29.308Z,995.34
2022-10-08T05:20:28.305Z,995.34
2022-10-08T05:21:28.321Z,995.30
2022-10-08T05:22:28.286Z,995.37
2022-10-08T05:23:28.292Z,995.32
2022-10-08T05:24:28.269Z,995.36
2022-10-08T05:25:28.270Z,995.34
2022-10-08T05:26:46.517Z,995.36
2022-10-08T05:27:30.304Z,995.26
2022-10-08T05:28:28.279Z,995.29
2022-10-08T05:29:28.257Z,995.34
2022-10-08T05:30:28.303Z,995.30
2022-10-08T05:31:28.269Z,995.35
2022-10-08T05:32:28.262Z,995.34
2022-10-08T05:33:28.264Z,995.29
2022-10-08T05:34:28.238Z,995.30
2022-10-08T05:35:28.235Z,995.32
2022-10-08T05:36:28.220Z,995.32
2022-10-08T05:37:28.219Z,995.34
2022-10-08T05:38:31.445Z,995.30
2022-10-08T05:39:30.229Z,995.30
2022-10-08T05:40:28.281Z,995.31
2022-10-08T05:41:28.221Z,995.27
2022-10-08T05:42:28.183Z,995.27
2022-10-08T05:43:28.224Z,995.32
2022-10-08T05:44:28.197Z,995.30
2022-10-08T05:45:28.179Z,995.26
2022-10-08T05:46:28.181Z,995.29
2022-10-08T05:47:28.173Z,995.27
2022-10-08T05:48:28.146Z,995.36
2022-10-08T05:49:28.146Z,995.29
2022-10-08T05:50:28.175Z,995.27
2022-10-08T05:51:28.184Z,995.34
2022-10-08T05:52:28.130Z,995.38
2022-10-08T05:53:28.128Z,995.36
2022-10-08T05:54:28.182Z,995.31
2022-10-08T05:55:28.230Z,995.32
2022-10-08T05:56:28.109Z,995.31
2022-10-08T05:57:28.239Z,995.36
2022-10-08T05:58:30.473Z,995.41
2022-10-08T05:59:29.117Z,995.39
2022-10-08T06:00:28.132Z,995.37
2022-10-08T06:01:28.236Z,995.35
2022-10-08T06:02:28.141Z,995.30
2022-10-08T06:03:29.113Z,995.34
2022-10-08T06:04:28.097Z,995.34
2022-10-08T06:05:28.124Z,995.35
2022-10-08T06:06:28.066Z,995.44
2022-10-08T06:07:28.061Z,995.44
2022-10-08T06:08:28.073Z,995.47
2022-10-08T06:09:28.069Z,995.49
2022-10-08T06:10:28.103Z,995.41
2022-10-08T06:11:28.054Z,995.38
2022-10-08T06:12:28.042Z,995.46
2022-10-08T06:13:28.039Z,995.47
2022-10-08T06:14:28.057Z,995.47
2022-10-08T06:15:28.023Z,995.51
2022-10-08T06:16:28.080Z,995.50
2022-10-08T06:17:28.010Z,995.51
2022-10-08T06:18:27.996Z,995.55
2022-10-08T06:19:28.014Z,995.52
2022-10-08T06:20:31.810Z,995.47
2022-10-08T06:21:28.970Z,995.45
2022-10-08T06:22:27.990Z,995.38
2022-10-08T06:23:27.978Z,995.38
2022-10-08T06:24:27.979Z,995.39
2022-10-08T06:25:28.001Z,995.44
2022-10-08T06:26:31.663Z,995.48
2022-10-08T06:27:29.962Z,995.50
2022-10-08T06:28:28.010Z,995.53
2022-10-08T06:29:27.958Z,995.51
2022-10-08T06:30:28.033Z,995.49
2022-10-08T06:31:28.015Z,995.51
2022-10-08T06:32:27.923Z,995.55
2022-10-08T06:33:27.916Z,995.57
2022-10-08T06:34:27.906Z,995.56
2022-10-08T06:35:27.918Z,995.56
2022-10-08T06:36:27.897Z,995.59
2022-10-08T06:37:27.894Z,995.55
2022-10-08T06:38:27.891Z,995.64
2022-10-08T06:39:27.994Z,995.55
2022-10-08T06:40:27.907Z,995.54
2022-10-08T06:41:27.891Z,995.53
2022-10-08T06:42:27.913Z,995.52
2022-10-08T06:43:27.855Z,995.51
2022-10-08T06:44:27.859Z,995.46
2022-10-08T06:45:27.853Z,995.48
2022-10-08T06:46:27.937Z,995.54
2022-10-08T06:47:27.880Z,995.56
2022-10-08T06:48:27.831Z,995.58
2022-10-08T06:49:27.853Z,995.63
2022-10-08T06:50:27.870Z,995.57
2022-10-08T06:51:27.892Z,995.59
2022-10-08T06:52:27.858Z,995.59
2022-10-08T06:53:27.806Z,995.64
2022-10-08T06:54:27.818Z,995.68
2022-10-08T06:55:27.806Z,995.66
2022-10-08T06:56:27.835Z,995.71
2022-10-08T06:57:27.813Z,995.78
2022-10-08T06:58:27.790Z,995.72
2022-10-08T06:59:27.805Z,995.71
2022-10-08T07:00:27.783Z,995.74
2022-10-08T07:01:32.544Z,995.76
2022-10-08T07:02:29.857Z,995.73
2022-10-08T07:03:27.779Z,995.75
2022-10-08T07:04:27.774Z,995.82
2022-10-08T07:05:27.790Z,995.82
2022-10-08T07:06:27.790Z,995.86
2022-10-08T07:07:27.739Z,995.89
2022-10-08T07:08:27.774Z,995.84
2022-10-08T07:09:27.775Z,995.87
2022-10-08T07:10:32.448Z,995.96
2022-10-08T07:11:29.749Z,995.98
2022-10-08T07:12:27.742Z,995.94
2022-10-08T07:13:27.750Z,995.92
2022-10-08T07:14:27.738Z,995.97
2022-10-08T07:15:27.790Z,996.01
2022-10-08T07:16:27.827Z,996.06
2022-10-08T07:17:27.740Z,996.01
2022-10-08T07:18:27.725Z,996.06
2022-10-08T07:19:27.733Z,996.06
2022-10-08T07:20:27.716Z,996.08
2022-10-08T07:21:27.695Z,996.08
2022-10-08T07:22:27.721Z,996.08
2022-10-08T07:23:27.677Z,996.13
2022-10-08T07:24:27.726Z,996.08
2022-10-08T07:25:27.665Z,996.08
2022-10-08T07:26:27.665Z,996.06
2022-10-08T07:27:27.692Z,996.10
2022-10-08T07:28:28.696Z,996.09
2022-10-08T07:29:27.680Z,996.06
2022-10-08T07:30:27.662Z,996.02
2022-10-08T07:31:27.716Z,996.06
2022-10-08T07:32:27.638Z,996.11
2022-10-08T07:33:27.642Z,996.03
2022-10-08T07:34:27.675Z,996.11
2022-10-08T07:35:27.614Z,996.07
2022-10-08T07:36:27.613Z,996.14
2022-10-08T07:37:27.614Z,996.14
2022-10-08T07:38:27.619Z,996.22
2022-10-08T07:39:27.647Z,996.22
2022-10-08T07:40:27.635Z,996.21
2022-10-08T07:41:27.601Z,996.19
2022-10-08T07:42:27.608Z,996.15
2022-10-08T07:43:27.615Z,996.13
2022-10-08T07:44:27.581Z,996.17
2022-10-08T07:45:27.645Z,996.20
2022-10-08T07:46:27.805Z,996.22
2022-10-08T07:47:27.562Z,996.19
2022-10-08T07:48:31.545Z,996.30
2022-10-08T07:49:29.569Z,996.35
2022-10-08T07:50:27.581Z,996.23
2022-10-08T07:51:27.548Z,996.22
2022-10-08T07:52:27.661Z,996.26
2022-10-08T07:53:27.556Z,996.24
2022-10-08T07:54:27.577Z,996.28
2022-10-08T07:55:27.566Z,996.21
2022-10-08T07:56:27.586Z,996.20
2022-10-08T07:57:27.522Z,996.18
2022-10-08T07:58:27.511Z,996.14
2022-10-08T07:59:27.492Z,996.09
2022-10-08T08:00:27.574Z,996.32
2022-10-08T08:01:27.538Z,996.36
2022-10-08T08:02:27.548Z,996.39
2022-10-08T08:03:27.487Z,996.37
2022-10-08T08:04:27.500Z,996.43
2022-10-08T08:05:27.462Z,996.40
2022-10-08T08:06:27.506Z,996.46
2022-10-08T08:07:27.468Z,996.45
2022-10-08T08:08:27.469Z,996.47
2022-10-08T08:09:27.457Z,996.48
2022-10-08T08:10:27.456Z,996.45
2022-10-08T08:11:27.463Z,996.41
2022-10-08T08:12:27.497Z,996.44
2022-10-08T08:13:27.425Z,996.48
2022-10-08T08:14:27.435Z,996.47
2022-10-08T08:15:27.449Z,996.45
2022-10-08T08:16:27.485Z,996.51
2022-10-08T08:17:27.441Z,996.52
2022-10-08T08:18:27.396Z,996.49
2022-10-08T08:19:27.414Z,996.49
2022-10-08T08:20:27.386Z,996.47
2022-10-08T08:21:27.397Z,996.54
2022-10-08T08:22:27.409Z,996.50
2022-10-08T08:23:27.389Z,996.50
2022-10-08T08:24:27.369Z,996.53
2022-10-08T08:25:27.357Z,996.51
2022-10-08T08:26:27.357Z,996.52
2022-10-08T08:27:27.358Z,996.56
2022-10-08T08:28:27.461Z,996.57
2022-10-08T08:29:27.358Z,996.52
2022-10-08T08:30:27.329Z,996.59
2022-10-08T08:31:27.377Z,996.57
2022-10-08T08:32:28.995Z,996.58
2022-10-08T08:33:28.323Z,996.58
2022-10-08T08:34:27.752Z,996.60
2022-10-08T08:35:27.389Z,996.62
2022-10-08T08:36:27.305Z,996.60
2022-10-08T08:37:27.332Z,996.65
2022-10-08T08:38:27.324Z,996.67
2022-10-08T08:39:27.309Z,996.66
2022-10-08T08:40:27.275Z,996.70
2022-10-08T08:41:27.265Z,996.71
2022-10-08T08:42:27.269Z,996.74
2022-10-08T08:43:27.285Z,996.73
2022-10-08T08:44:27.284Z,996.74
2022-10-08T08:45:46.743Z,996.75
2022-10-08T08:46:29.311Z,996.81
2022-10-08T08:47:27.263Z,996.81
2022-10-08T08:48:27.527Z,996.79
2022-10-08T08:49:27.265Z,996.89
2022-10-08T08:50:27.541Z,996.85
2022-10-08T08:51:27.232Z,996.85
2022-10-08T08:52:27.295Z,996.93
2022-10-08T08:53:27.236Z,996.93
2022-10-08T08:54:27.322Z,996.87
2022-10-08T08:55:27.226Z,996.91
2022-10-08T08:56:27.238Z,996.90
2022-10-08T08:57:27.203Z,996.90
2022-10-08T08:58:27.198Z,997.01
2022-10-08T08:59:27.196Z,997.03
2022-10-08T09:00:27.200Z,997.05
2022-10-08T09:01:28.354Z,997.10
2022-10-08T09:02:28.273Z,997.09
2022-10-08T09:03:27.194Z,997.14
2022-10-08T09:04:27.170Z,997.17
2022-10-08T09:05:27.207Z,997.18
2022-10-08T09:06:27.148Z,997.15
2022-10-08T09:07:27.122Z,997.13
2022-10-08T09:08:27.143Z,997.16
2022-10-08T09:09:27.140Z,997.15
2022-10-08T09:10:27.176Z,997.12
2022-10-08T09:11:27.129Z,997.17
2022-10-08T09:12:27.162Z,997.18
2022-10-08T09:13:27.109Z,997.19
2022-10-08T09:14:27.107Z,997.22
2022-10-08T09:15:27.079Z,997.23
2022-10-08T09:16:27.256Z,997.23
2022-10-08T09:17:27.073Z,997.20
2022-10-08T09:18:27.062Z,997.31
2022-10-08T09:19:27.041Z,997.37
2022-10-08T09:20:27.054Z,997.35
2022-10-08T09:21:27.069Z,997.39
2022-10-08T09:22:27.041Z,997.39
2022-10-08T09:23:27.034Z,997.39
2022-10-08T09:24:27.047Z,997.40
2022-10-08T09:25:27.026Z,997.36
2022-10-08T09:26:27.005Z,997.38
2022-10-08T09:27:27.047Z,997.40
2022-10-08T09:28:27.101Z,997.39
2022-10-08T09:29:27.028Z,997.38
2022-10-08T09:30:27.042Z,997.39
2022-10-08T09:31:27.055Z,997.40
2022-10-08T09:32:27.003Z,997.46
2022-10-08T09:33:27.004Z,997.43
2022-10-08T09:34:26.965Z,997.44
2022-10-08T09:35:26.993Z,997.49
2022-10-08T09:36:26.971Z,997.51
2022-10-08T09:37:26.991Z,997.55
2022-10-08T09:38:27.013Z,997.53
2022-10-08T09:39:26.976Z,997.59
2022-10-08T09:40:26.927Z,997.62
2022-10-08T09:41:27.917Z,997.53
2022-10-08T09:42:27.009Z,997.63
2022-10-08T09:43:26.968Z,997.68
2022-10-08T09:44:26.929Z,997.60
2022-10-08T09:45:26.913Z,997.62
2022-10-08T09:46:26.978Z,997.66
2022-10-08T09:47:26.892Z,997.66
2022-10-08T09:48:26.862Z,997.75
2022-10-08T09:49:26.858Z,997.69
2022-10-08T09:50:26.886Z,997.76
2022-10-08T09:51:26.869Z,997.72
2022-10-08T09:52:26.841Z,997.82
2022-10-08T09:53:26.835Z,997.82
2022-10-08T09:54:26.893Z,997.79
2022-10-08T09:55:26.810Z,997.83
2022-10-08T09:56:26.839Z,997.86
2022-10-08T09:57:26.819Z,997.85
2022-10-08T09:58:26.850Z,997.86
2022-10-08T09:59:26.794Z,997.91
2022-10-08T10:00:26.781Z,997.86
2022-10-08T10:01:26.861Z,997.89
2022-10-08T10:02:26.771Z,997.89
2022-10-08T10:03:26.849Z,997.94
2022-10-08T10:04:26.750Z,997.96
2022-10-08T10:05:26.745Z,997.98
2022-10-08T10:06:26.753Z,997.90
2022-10-08T10:07:26.764Z,997.98
2022-10-08T10:08:26.750Z,997.94
2022-10-08T10:09:26.708Z,998.02
2022-10-08T10:10:27.720Z,998.02
2022-10-08T10:11:26.733Z,997.93
2022-10-08T10:12:26.694Z,997.95
2022-10-08T10:13:26.713Z,997.95
2022-10-08T10:14:26.718Z,997.97
2022-10-08T10:15:26.721Z,997.93
2022-10-08T10:16:26.776Z,997.91
2022-10-08T10:17:26.684Z,997.98
2022-10-08T10:18:26.677Z,997.98
2022-10-08T10:19:26.679Z,997.99
2022-10-08T10:20:26.660Z,998.02
2022-10-08T10:21:26.639Z,998.01
2022-10-08T10:22:26.641Z,998.05
2022-10-08T10:23:26.724Z,998.02
2022-10-08T10:24:26.620Z,998.05
2022-10-08T10:25:27.604Z,998.00
2022-10-08T10:26:26.620Z,997.95
2022-10-08T10:27:26.642Z,998.02
2022-10-08T10:28:26.658Z,998.08
2022-10-08T10:29:26.568Z,998.02
2022-10-08T10:30:26.584Z,997.97
2022-10-08T10:31:26.583Z,998.00
2022-10-08T10:32:29.641Z,998.03
2022-10-08T10:33:28.567Z,997.99
2022-10-08T10:34:26.553Z,998.01
2022-10-08T10:35:26.587Z,997.99
2022-10-08T10:36:26.523Z,997.99
2022-10-08T10:37:26.537Z,997.99
2022-10-08T10:38:26.557Z,998.03
2022-10-08T10:39:26.510Z,997.98
2022-10-08T10:40:26.503Z,997.99
2022-10-08T10:41:26.501Z,997.99
2022-10-08T10:42:26.499Z,997.93
2022-10-08T10:43:26.543Z,997.99
2022-10-08T10:44:26.526Z,998.00
2022-10-08T10:45:26.472Z,997.99
2022-10-08T10:46:26.547Z,998.02
2022-10-08T10:47:31.608Z,997.89
2022-10-08T10:48:28.442Z,997.94
2022-10-08T10:49:26.453Z,997.88
2022-10-08T10:50:26.435Z,997.99
2022-10-08T10:51:26.465Z,997.96
2022-10-08T10:52:26.430Z,998.01
2022-10-08T10:53:26.429Z,998.05
2022-10-08T10:54:26.411Z,998.03
2022-10-08T10:55:26.406Z,998.01
2022-10-08T10:56:26.416Z,998.06
2022-10-08T10:57:26.442Z,998.05
2022-10-08T10:58:26.415Z,998.07
2022-10-08T10:59:26.397Z,998.07
2022-10-08T11:00:26.367Z,998.09
2022-10-08T11:01:26.429Z,998.12
2022-10-08T11:02:26.480Z,998.09
2022-10-08T11:03:26.398Z,998.09
2022-10-08T11:04:26.324Z,998.09
2022-10-08T11:05:26.320Z,998.08
2022-10-08T11:06:26.328Z,998.11
2022-10-08T11:07:26.383Z,998.07
2022-10-08T11:08:26.327Z,998.09
2022-10-08T11:09:26.291Z,998.09
2022-10-08T11:10:26.321Z,998.10
2022-10-08T11:11:30.811Z,998.07
2022-10-08T11:12:28.276Z,998.05
2022-10-08T11:13:26.323Z,998.05
2022-10-08T11:14:26.262Z,998.02
2022-10-08T11:15:26.262Z,997.96
2022-10-08T11:16:26.262Z,998.03
2022-10-08T11:17:26.343Z,997.98
2022-10-08T11:18:26.308Z,998.05
2022-10-08T11:19:26.254Z,997.95
2022-10-08T11:20:26.239Z,997.97
2022-10-08T11:21:26.200Z,998.00
2022-10-08T11:22:26.207Z,997.97
2022-10-08T11:23:26.218Z,998.01
2022-10-08T11:24:26.215Z,997.99
2022-10-08T11:25:26.265Z,997.95
2022-10-08T11:26:26.168Z,997.96
2022-10-08T11:27:26.188Z,997.95
2022-10-08T11:28:26.187Z,997.92
2022-10-08T11:29:26.162Z,997.88
2022-10-08T11:30:26.162Z,997.96
2022-10-08T11:31:26.232Z,997.87
2022-10-08T11:32:26.131Z,997.90
2022-10-08T11:33:26.163Z,997.86
2022-10-08T11:34:26.137Z,997.81
2022-10-08T11:35:26.165Z,997.88
2022-10-08T11:36:30.537Z,997.90
2022-10-08T11:37:28.133Z,997.88
2022-10-08T11:38:26.540Z,997.90
2022-10-08T11:39:26.113Z,998.00
2022-10-08T11:40:26.097Z,997.98
2022-10-08T11:41:26.052Z,998.00
2022-10-08T11:42:26.043Z,997.98
2022-10-08T11:43:26.072Z,997.92
2022-10-08T11:44:26.085Z,997.90
2022-10-08T11:45:26.049Z,997.92
2022-10-08T11:46:26.071Z,997.92
2022-10-08T11:47:26.041Z,997.88
2022-10-08T11:48:26.041Z,997.87
2022-10-08T11:49:26.012Z,997.84
2022-10-08T11:50:25.987Z,997.80
2022-10-08T11:51:25.996Z,997.83
2022-10-08T11:52:25.981Z,997.75
2022-10-08T11:53:26.022Z,997.79
2022-10-08T11:54:25.952Z,997.74
2022-10-08T11:55:25.953Z,997.77
2022-10-08T11:56:26.095Z,997.70
2022-10-08T11:57:25.951Z,997.70
2022-10-08T11:58:25.940Z,997.74
2022-10-08T11:59:25.954Z,997.68
2022-10-08T12:00:25.935Z,997.71
2022-10-08T12:01:25.913Z,997.66
2022-10-08T12:02:26.051Z,997.62
2022-10-08T12:03:25.958Z,997.67
2022-10-08T12:04:25.913Z,997.60
2022-10-08T12:05:25.875Z,997.61
2022-10-08T12:06:25.928Z,997.62
2022-10-08T12:07:25.979Z,997.62
2022-10-08T12:08:25.861Z,997.59
2022-10-08T12:09:25.877Z,997.67
2022-10-08T12:10:25.843Z,997.68
2022-10-08T12:11:25.826Z,997.59
2022-10-08T12:12:25.827Z,997.60
2022-10-08T12:13:25.820Z,997.59
2022-10-08T12:14:25.830Z,997.60
2022-10-08T12:15:25.809Z,997.59
2022-10-08T12:16:25.857Z,997.62
2022-10-08T12:17:25.786Z,997.52
2022-10-08T12:18:26.519Z,997.60
2022-10-08T12:19:26.828Z,997.57
2022-10-08T12:20:26.801Z,997.55
2022-10-08T12:21:25.769Z,997.64
2022-10-08T12:22:25.751Z,997.61
2022-10-08T12:23:25.788Z,997.71
2022-10-08T12:24:25.757Z,997.73
2022-10-08T12:25:25.821Z,997.65
2022-10-08T12:26:25.746Z,997.70
2022-10-08T12:27:25.773Z,997.75
2022-10-08T12:28:25.773Z,997.74